createdAt,value
2023-01-23T00:02:14.501Z,101503.81
2023-01-23T00:05:03.040Z,101493.97
2023-01-23T00:07:52.973Z,101464.56
2023-01-23T00:10:41.458Z,101496.03
2023-01-23T00:13:29.960Z,101484.22
2023-01-23T00:16:20.766Z,101462.28
2023-01-23T00:19:11.177Z,101460.38
2023-01-23T00:22:00.465Z,101489.50
2023-01-23T00:24:50.312Z,101478.59
2023-01-23T00:27:38.865Z,101491.59
2023-01-23T00:30:27.490Z,101479.53
2023-01-23T00:33:15.918Z,101486.28
2023-01-23T00:36:04.664Z,101480.06
2023-01-23T00:38:53.139Z,101488.13
2023-01-23T00:41:42.938Z,101469.97
2023-01-23T00:44:31.501Z,101479.13
2023-01-23T00:47:19.943Z,101456.63
2023-01-23T00:50:09.171Z,101480.25
2023-01-23T00:52:57.624Z,101476.00
2023-01-23T00:55:46.233Z,101486.13
2023-01-23T00:58:36.297Z,101492.00
2023-01-23T01:01:25.993Z,101488.25
2023-01-23T01:04:14.527Z,101495.97
2023-01-23T01:07:02.986Z,101495.91
2023-01-23T01:09:51.598Z,101479.28
2023-01-23T01:12:40.405Z,101475.06
2023-01-23T01:15:31.142Z,101496.03
2023-01-23T01:18:20.302Z,101503.59
2023-01-23T01:21:09.428Z,101511.31
2023-01-23T01:23:57.942Z,101507.06
2023-01-23T01:26:46.396Z,101506.44
2023-01-23T01:29:34.985Z,101502.56
2023-01-23T01:32:24.791Z,101493.28
2023-01-23T01:35:13.258Z,101505.84
2023-01-23T01:38:01.707Z,101507.97
2023-01-23T01:40:50.325Z,101505.72
2023-01-23T01:43:39.000Z,101511.88
2023-01-23T01:46:28.250Z,101495.38
2023-01-23T01:49:21.077Z,101517.06
2023-01-23T01:52:11.995Z,101516.78
2023-01-23T01:55:03.157Z,101520.88
2023-01-23T01:57:54.231Z,101525.00
2023-01-23T02:00:43.086Z,101515.63
2023-01-23T02:03:31.697Z,101516.44
2023-01-23T02:06:21.995Z,101518.50
2023-01-23T02:09:15.765Z,101528.69
2023-01-23T02:12:04.720Z,101523.91
2023-01-23T02:14:53.221Z,101520.16
2023-01-23T02:17:41.841Z,101504.47
2023-01-23T02:20:30.689Z,101512.63
2023-01-23T02:23:25.180Z,101535.97
2023-01-23T02:26:17.574Z,101532.63
2023-01-23T02:29:07.417Z,101544.88
2023-01-23T02:31:56.725Z,101543.66
2023-01-23T02:34:45.480Z,101532.97
2023-01-23T02:37:35.502Z,101538.84
2023-01-23T02:40:31.993Z,101529.47
2023-01-23T02:43:23.784Z,101490.44
2023-01-23T02:46:13.084Z,101534.41
2023-01-23T02:49:02.477Z,101535.16
2023-01-23T02:51:51.383Z,101524.84
2023-01-23T02:54:40.740Z,101527.47
2023-01-23T02:57:29.203Z,101534.63
2023-01-23T03:00:20.690Z,101529.59
2023-01-23T03:03:09.599Z,101538.47
2023-01-23T03:06:01.514Z,101531.00
2023-01-23T03:08:50.039Z,101540.53
2023-01-23T03:11:40.313Z,101513.88
2023-01-23T03:14:30.135Z,101536.06
2023-01-23T03:17:20.125Z,101531.22
2023-01-23T03:20:09.505Z,101534.16
2023-01-23T03:22:58.033Z,101532.81
2023-01-23T03:25:48.821Z,101535.59
2023-01-23T03:28:54.673Z,101534.44
2023-01-23T03:31:43.615Z,101520.72
2023-01-23T03:34:33.808Z,101492.03
2023-01-23T03:37:22.304Z,101512.13
2023-01-23T03:40:39.524Z,101527.78
2023-01-23T03:43:32.029Z,101521.00
2023-01-23T03:46:20.702Z,101512.81
2023-01-23T03:49:09.185Z,101524.50
2023-01-23T03:51:59.202Z,101516.88
2023-01-23T03:54:47.690Z,101514.34
2023-01-23T03:57:36.191Z,101509.16
2023-01-23T04:00:25.033Z,101513.25
2023-01-23T04:03:13.566Z,101507.00
2023-01-23T04:06:02.124Z,101515.91
2023-01-23T04:08:51.996Z,101520.69
2023-01-23T04:11:40.421Z,101507.31
2023-01-23T04:14:30.446Z,101514.69
2023-01-23T04:17:18.914Z,101514.34
2023-01-23T04:20:08.043Z,101532.09
2023-01-23T04:22:56.826Z,101535.72
2023-01-23T04:25:46.713Z,101529.88
2023-01-23T04:28:35.283Z,101542.47
2023-01-23T04:31:23.879Z,101554.50
2023-01-23T04:34:12.397Z,101560.31
2023-01-23T04:37:00.813Z,101416.03
2023-01-23T04:39:49.356Z,101549.63
2023-01-23T04:42:41.118Z,101566.25
2023-01-23T04:45:29.706Z,101568.72
2023-01-23T04:48:18.192Z,101576.94
2023-01-23T04:51:07.078Z,101575.16
2023-01-23T04:53:55.598Z,101581.91
2023-01-23T04:56:44.216Z,101574.19
2023-01-23T04:59:34.014Z,101576.50
2023-01-23T05:02:22.521Z,101573.22
2023-01-23T05:05:11.045Z,101577.41
2023-01-23T05:07:59.522Z,101569.25
2023-01-23T05:10:48.021Z,101574.25
2023-01-23T05:13:36.774Z,101568.94
2023-01-23T05:16:26.628Z,101564.50
2023-01-23T05:19:15.131Z,101558.38
2023-01-23T05:22:03.579Z,101568.47
2023-01-23T05:24:52.057Z,101563.56
2023-01-23T05:27:40.540Z,101572.69
2023-01-23T05:30:29.070Z,101578.47
2023-01-23T05:33:18.965Z,101564.03
2023-01-23T05:36:08.305Z,101572.84
2023-01-23T05:38:56.888Z,101568.13
2023-01-23T05:41:45.399Z,101569.22
2023-01-23T05:44:34.094Z,101564.63
2023-01-23T05:47:22.582Z,101575.22
2023-01-23T05:50:15.765Z,101586.97
2023-01-23T05:53:04.310Z,101587.22
2023-01-23T05:55:52.782Z,101586.56
2023-01-23T05:58:41.294Z,101575.09
2023-01-23T06:01:29.727Z,101590.97
2023-01-23T06:04:19.101Z,101486.63
2023-01-23T06:07:14.482Z,101591.63
2023-01-23T06:10:02.987Z,101594.00
2023-01-23T06:12:51.467Z,101593.47
2023-01-23T06:15:40.069Z,101572.38
2023-01-23T06:18:28.661Z,101583.00
2023-01-23T06:21:18.283Z,101589.03
2023-01-23T06:24:08.770Z,101592.00
2023-01-23T06:26:57.229Z,101578.25
2023-01-23T06:29:45.747Z,101599.38
2023-01-23T06:32:34.232Z,101589.13
2023-01-23T06:35:23.305Z,101520.31
2023-01-23T06:38:11.837Z,101602.34
2023-01-23T06:41:01.829Z,101591.78
2023-01-23T06:43:50.339Z,101600.06
2023-01-23T06:46:38.942Z,101612.34
2023-01-23T06:49:27.432Z,101615.72
2023-01-23T06:52:15.933Z,101623.03
2023-01-23T06:55:04.563Z,101624.09
2023-01-23T06:57:54.331Z,101604.91
2023-01-23T07:00:44.495Z,101637.09
2023-01-23T07:03:32.982Z,101640.38
2023-01-23T07:06:21.464Z,101644.69
2023-01-23T07:09:10.681Z,101657.94
2023-01-23T07:11:59.244Z,101651.78
2023-01-23T07:14:49.035Z,101682.81
2023-01-23T07:17:37.559Z,101653.94
2023-01-23T07:20:27.411Z,101662.16
2023-01-23T07:23:16.104Z,101665.88
2023-01-23T07:26:09.387Z,101666.28
2023-01-23T07:28:57.891Z,101671.97
2023-01-23T07:31:47.806Z,101663.16
2023-01-23T07:34:36.435Z,101659.69
2023-01-23T07:37:25.913Z,101677.88
2023-01-23T07:40:14.748Z,101566.06
2023-01-23T07:43:03.160Z,101672.06
2023-01-23T07:45:51.662Z,101687.84
2023-01-23T07:48:41.520Z,101688.69
2023-01-23T07:51:30.089Z,101682.44
2023-01-23T07:54:18.718Z,101663.22
2023-01-23T07:57:07.484Z,101683.50
2023-01-23T07:59:55.969Z,101676.84
2023-01-23T08:02:44.544Z,101685.44
2023-01-23T08:05:34.330Z,101679.03
2023-01-23T08:08:22.744Z,101643.25
2023-01-23T08:11:11.940Z,101679.25
2023-01-23T08:14:00.438Z,101681.44
2023-01-23T08:16:50.503Z,101677.38
2023-01-23T08:19:38.995Z,101674.00
2023-01-23T08:22:29.003Z,101670.53
2023-01-23T08:25:17.761Z,101668.59
2023-01-23T08:28:06.370Z,101665.03
2023-01-23T08:30:55.086Z,101674.34
2023-01-23T08:33:43.613Z,101667.59
2023-01-23T08:36:32.109Z,101677.16
2023-01-23T08:39:21.962Z,101666.59
2023-01-23T08:42:10.449Z,101678.75
2023-01-23T08:44:58.911Z,101678.25
2023-01-23T08:47:47.453Z,101676.66
2023-01-23T08:50:36.315Z,101668.91
2023-01-23T08:53:24.787Z,101675.38
2023-01-23T08:56:18.069Z,101680.91
2023-01-23T08:59:07.282Z,101673.44
2023-01-23T09:01:56.659Z,101680.19
2023-01-23T09:04:46.611Z,101688.84
2023-01-23T09:07:38.220Z,101680.72
2023-01-23T09:10:27.334Z,101680.19
2023-01-23T09:13:19.622Z,101686.22
2023-01-23T09:16:09.581Z,101684.81
2023-01-23T09:18:58.426Z,101674.97
2023-01-23T09:21:47.021Z,101695.47
2023-01-23T09:24:35.791Z,101689.56
2023-01-23T09:27:24.677Z,101692.53
2023-01-23T09:30:15.625Z,101694.06
2023-01-23T09:33:04.755Z,101700.38
2023-01-23T09:35:53.512Z,101713.00
2023-01-23T09:38:42.280Z,101708.53
2023-01-23T09:41:31.688Z,101659.31
2023-01-23T09:44:23.443Z,101712.53
2023-01-23T09:47:16.389Z,101711.75
2023-01-23T09:50:09.377Z,101708.41
2023-01-23T09:53:01.400Z,101699.25
2023-01-23T09:55:56.665Z,101696.75
2023-01-23T09:58:51.459Z,101678.41
2023-01-23T10:01:40.550Z,101678.63
2023-01-23T10:04:32.588Z,101693.31
2023-01-23T10:07:39.944Z,101687.25
2023-01-23T10:10:53.737Z,101692.94
2023-01-23T10:14:04.204Z,101683.03
2023-01-23T10:17:04.476Z,101698.84
2023-01-23T10:20:30.399Z,101695.47
2023-01-23T10:23:41.876Z,101701.13
2023-01-23T10:26:32.464Z,101699.72
2023-01-23T10:29:28.555Z,101702.13
2023-01-23T10:32:24.837Z,101692.16
2023-01-23T10:35:18.543Z,101699.03
2023-01-23T10:38:14.078Z,101694.59
2023-01-23T10:41:14.908Z,101699.03
2023-01-23T10:44:03.687Z,101705.31
2023-01-23T10:46:55.950Z,101697.75
2023-01-23T10:49:46.533Z,101711.91
2023-01-23T10:52:38.762Z,101706.72
2023-01-23T10:55:30.551Z,101708.41
2023-01-23T10:58:29.898Z,101706.75
2023-01-23T11:01:27.026Z,101714.56
2023-01-23T11:04:21.112Z,101719.97
2023-01-23T11:07:15.470Z,101711.91
2023-01-23T11:10:18.835Z,101697.38
2023-01-23T11:13:26.341Z,101709.25
2023-01-23T11:16:15.874Z,101666.91
2023-01-23T11:19:12.117Z,101680.56
2023-01-23T11:22:02.218Z,101700.50
2023-01-23T11:24:50.680Z,101704.38
2023-01-23T11:27:40.528Z,101701.16
2023-01-23T11:30:42.930Z,101668.94
2023-01-23T11:33:39.893Z,101694.03
2023-01-23T11:36:36.354Z,101691.38
2023-01-23T11:39:42.378Z,101698.00
2023-01-23T11:42:30.858Z,101697.53
2023-01-23T11:45:34.076Z,101691.75
2023-01-23T11:48:40.713Z,101673.44
2023-01-23T11:51:34.080Z,101669.72
2023-01-23T11:54:38.679Z,101633.44
2023-01-23T11:57:36.277Z,101656.59
2023-01-23T12:00:34.146Z,101632.94
2023-01-23T12:03:48.904Z,101650.91
2023-01-23T12:06:49.848Z,101649.34
2023-01-23T12:09:47.212Z,101651.53
2023-01-23T12:13:00.634Z,101646.81
2023-01-23T12:15:59.778Z,101646.94
2023-01-23T12:18:58.892Z,101647.81
2023-01-23T12:21:52.758Z,101640.91
2023-01-23T12:24:50.230Z,101577.91
2023-01-23T12:27:43.774Z,101631.16
2023-01-23T12:30:54.268Z,101635.50
2023-01-23T12:34:10.250Z,101627.78
2023-01-23T12:37:19.464Z,101632.84
2023-01-23T12:40:15.749Z,101630.69
2023-01-23T12:43:09.489Z,101624.91
2023-01-23T12:46:05.721Z,101633.94
2023-01-23T12:48:58.454Z,101618.50
2023-01-23T12:51:48.968Z,101620.22
2023-01-23T12:54:42.064Z,101618.41
2023-01-23T12:57:52.794Z,101609.81
2023-01-23T13:00:56.101Z,101597.69
2023-01-23T13:04:05.567Z,101609.47
2023-01-23T13:07:10.113Z,101613.44
2023-01-23T13:10:19.949Z,101574.66
2023-01-23T13:13:08.720Z,101609.25
2023-01-23T13:16:09.530Z,101609.81
2023-01-23T13:19:16.834Z,101475.53
2023-01-23T13:22:22.433Z,101599.47
2023-01-23T13:25:18.067Z,101591.50
2023-01-23T13:28:32.473Z,101595.47
2023-01-23T13:31:34.815Z,101585.69
2023-01-23T13:34:38.047Z,101588.59
2023-01-23T13:37:51.120Z,101592.06
2023-01-23T13:40:59.733Z,101603.28
2023-01-23T13:43:53.736Z,101602.81
2023-01-23T14:23:19.389Z,101564.84
2023-01-23T14:26:11.908Z,101546.06
2023-01-23T14:29:02.369Z,101579.75
2023-01-23T14:31:52.048Z,101569.41
2023-01-23T14:34:40.982Z,101574.44
2023-01-23T14:37:30.133Z,101553.97
2023-01-23T14:40:27.215Z,101557.31
2023-01-23T14:43:21.249Z,101559.69
2023-01-23T14:46:31.135Z,101563.97
2023-01-23T14:49:25.019Z,101557.81
2023-01-23T14:52:22.776Z,101564.22
2023-01-23T14:55:29.238Z,101566.25
2023-01-23T14:58:23.914Z,101576.13
2023-01-23T15:01:12.520Z,101568.06
2023-01-23T15:04:03.265Z,101578.28
2023-01-23T15:06:52.737Z,101580.25
2023-01-23T15:09:41.716Z,101584.50
2023-01-23T15:12:30.557Z,101587.03
2023-01-23T15:15:22.995Z,101592.06
2023-01-23T15:18:22.090Z,101577.59
2023-01-23T15:21:10.629Z,101598.13
2023-01-23T15:24:02.030Z,101581.34
2023-01-23T15:27:03.584Z,101570.63
2023-01-23T15:29:52.362Z,101584.25
2023-01-23T15:32:42.295Z,101591.59
2023-01-23T15:35:30.862Z,101566.81
2023-01-23T15:38:19.351Z,101589.69
2023-01-23T15:41:11.222Z,101581.25
2023-01-23T15:43:59.727Z,101601.22
2023-01-23T15:46:48.280Z,101605.75
2023-01-23T15:49:40.008Z,101594.66
2023-01-23T15:52:29.674Z,101619.34
2023-01-23T15:55:19.572Z,101613.31
2023-01-23T15:58:08.068Z,101616.22
2023-01-23T16:00:56.662Z,101610.91
2023-01-23T16:03:45.205Z,101616.13
2023-01-23T16:06:35.268Z,101614.03
2023-01-23T16:09:27.980Z,101612.97
2023-01-23T16:12:18.578Z,101613.34
2023-01-23T16:15:15.974Z,101610.69
2023-01-23T16:18:05.239Z,101620.06
2023-01-23T16:20:54.242Z,101622.97
2023-01-23T16:23:47.470Z,101623.47
2023-01-23T16:26:36.493Z,101624.44
2023-01-23T16:29:27.193Z,101616.47
2023-01-23T16:32:15.965Z,101612.13
2023-01-23T16:35:04.633Z,101624.19
2023-01-23T16:37:54.531Z,101619.59
2023-01-23T16:40:44.445Z,101614.88
2023-01-23T16:43:33.467Z,101612.72
2023-01-23T16:46:22.090Z,101609.22
2023-01-23T16:49:10.616Z,101614.91
2023-01-23T16:52:00.259Z,101622.25
2023-01-23T16:54:48.794Z,101619.47
2023-01-23T16:57:38.779Z,101621.34
2023-01-23T17:00:34.647Z,101612.38
2023-01-23T17:03:25.847Z,101600.31
2023-01-23T17:06:15.693Z,101628.25
2023-01-23T17:09:04.538Z,101637.31
2023-01-23T17:11:55.446Z,101632.63
2023-01-23T17:14:46.476Z,101632.84
2023-01-23T17:17:36.398Z,101631.50
2023-01-23T17:20:25.155Z,101631.28
2023-01-23T17:23:14.615Z,101632.94
2023-01-23T17:26:03.653Z,101625.47
2023-01-23T17:28:52.564Z,101627.88
2023-01-23T17:31:43.392Z,101636.81
2023-01-23T17:34:41.533Z,101637.78
2023-01-23T17:37:37.321Z,101644.06
2023-01-23T17:40:26.329Z,101648.63
2023-01-23T17:43:15.310Z,101648.75
2023-01-23T17:46:05.554Z,101642.59
2023-01-23T17:48:56.407Z,101618.97
2023-01-23T17:51:44.983Z,101637.28
2023-01-23T17:54:33.651Z,101640.44
2023-01-23T17:57:22.431Z,101643.19
2023-01-23T18:00:13.454Z,101651.28
2023-01-23T18:03:03.226Z,101637.66
2023-01-23T18:05:53.464Z,101651.03
2023-01-23T18:08:42.366Z,101656.84
2023-01-23T18:11:31.723Z,101660.78
2023-01-23T18:14:38.583Z,101671.03
2023-01-23T18:17:32.915Z,101668.88
2023-01-23T18:20:24.527Z,101658.91
2023-01-23T18:23:16.052Z,101683.25
2023-01-23T18:26:18.556Z,101608.88
2023-01-23T18:29:21.049Z,101650.94
2023-01-23T18:32:41.226Z,101670.47
2023-01-23T18:35:40.960Z,101671.28
2023-01-23T18:38:36.113Z,101671.78
2023-01-23T18:41:26.111Z,101634.78
2023-01-23T18:44:19.465Z,101670.94
2023-01-23T18:47:12.106Z,101653.19
2023-01-23T18:50:01.093Z,101648.03
2023-01-23T18:53:00.447Z,101673.72
2023-01-23T18:56:09.352Z,101667.44
2023-01-23T18:59:11.480Z,101672.97
2023-01-23T19:02:04.740Z,101661.44
2023-01-23T19:05:20.741Z,101660.09
2023-01-23T19:08:23.031Z,101668.78
2023-01-23T19:11:21.735Z,101656.59
2023-01-23T19:14:17.812Z,101672.28
2023-01-23T19:17:14.871Z,101639.84
2023-01-23T19:20:07.135Z,101655.63
2023-01-23T19:23:12.668Z,101652.84
2023-01-23T19:26:01.691Z,101649.34
2023-01-23T19:28:52.607Z,101642.00
2023-01-23T19:31:47.469Z,101642.38
2023-01-23T19:34:44.463Z,101654.31
2023-01-23T19:37:33.260Z,101653.81
2023-01-23T19:40:22.165Z,101645.03
2023-01-23T19:43:15.303Z,101658.66
2023-01-23T19:46:05.893Z,101657.69
2023-01-23T19:48:55.572Z,101650.81
2023-01-23T19:51:44.799Z,101653.97
2023-01-23T19:54:33.607Z,101659.13
2023-01-23T19:57:22.131Z,101662.84
2023-01-23T20:00:15.005Z,101668.16
2023-01-23T20:03:05.441Z,101649.47
2023-01-23T20:05:55.936Z,101593.69
2023-01-23T20:08:44.715Z,101655.63
2023-01-23T20:11:33.445Z,101658.41
2023-01-23T20:14:23.588Z,101659.00
2023-01-23T20:17:12.057Z,101644.25
2023-01-23T20:20:02.409Z,101636.53
2023-01-23T20:22:51.195Z,101645.00
2023-01-23T20:25:39.815Z,101644.63
2023-01-23T20:28:28.512Z,101650.66
2023-01-23T20:31:17.504Z,101644.53
2023-01-23T20:34:07.145Z,101646.69
2023-01-23T20:36:57.045Z,101650.44
2023-01-23T20:39:45.606Z,101672.50
2023-01-23T20:42:34.851Z,101668.78
2023-01-23T20:45:24.309Z,101675.88
2023-01-23T20:48:12.767Z,101659.13
2023-01-23T20:51:01.395Z,101679.38
2023-01-23T20:53:51.255Z,101672.34
2023-01-23T20:56:39.779Z,101668.16
2023-01-23T20:59:27.367Z,101668.03
2023-01-23T21:02:25.519Z,101663.91
2023-01-23T21:05:14.017Z,101659.44
2023-01-23T21:08:02.700Z,101617.75
2023-01-23T21:10:53.106Z,101640.09
2023-01-23T21:13:41.828Z,101674.41
2023-01-23T21:16:30.987Z,101661.53
2023-01-23T21:19:20.413Z,101675.25
2023-01-23T21:22:08.948Z,101664.19
2023-01-23T21:24:57.468Z,101677.16
2023-01-23T21:27:47.325Z,101634.50
2023-01-23T21:30:36.341Z,101682.47
2023-01-23T21:33:26.335Z,101681.91
2023-01-23T21:36:16.711Z,101649.22
2023-01-23T21:39:05.562Z,101693.09
2023-01-23T21:41:54.078Z,101696.47
2023-01-23T21:44:43.965Z,101696.84
2023-01-23T21:47:32.490Z,101684.69
2023-01-23T21:50:21.026Z,101693.47
2023-01-23T21:53:09.522Z,101696.00
2023-01-23T21:55:58.055Z,101700.19
2023-01-23T21:58:47.225Z,101695.00
2023-01-23T22:01:41.989Z,101695.38
2023-01-23T22:04:30.668Z,101700.81
2023-01-23T22:07:19.173Z,101703.59
2023-01-23T22:10:09.083Z,101675.28
2023-01-23T22:12:57.915Z,101702.06
2023-01-23T22:15:46.455Z,101704.56
2023-01-23T22:18:36.343Z,101707.13
2023-01-23T22:21:24.978Z,101689.97
2023-01-23T22:24:13.570Z,101662.50
2023-01-23T22:27:03.956Z,101714.09
2023-01-23T22:29:52.431Z,101704.72
2023-01-23T22:32:40.883Z,101704.00
2023-01-23T22:35:30.740Z,101711.94
2023-01-23T22:38:19.185Z,101705.06
2023-01-23T22:41:08.409Z,101706.53
2023-01-23T22:43:59.141Z,101724.34
2023-01-23T22:46:47.840Z,101691.69
2023-01-23T22:49:36.331Z,101718.44
2023-01-23T22:52:26.299Z,101701.81
2023-01-23T22:55:15.967Z,101698.06
2023-01-23T22:58:04.442Z,101552.13
2023-01-23T23:00:53.441Z,101696.38
2023-01-23T23:03:42.330Z,101707.59
2023-01-23T23:06:30.950Z,101708.69
2023-01-23T23:09:20.816Z,101704.25
2023-01-23T23:12:09.289Z,101703.16
2023-01-23T23:14:57.770Z,101715.94
2023-01-23T23:17:46.279Z,101693.84
2023-01-23T23:20:35.221Z,101514.16
2023-01-23T23:23:23.696Z,101708.56
2023-01-23T23:26:14.526Z,101710.97
2023-01-23T23:29:03.417Z,101692.16
2023-01-23T23:31:52.144Z,101712.66
2023-01-23T23:34:40.739Z,101708.69
2023-01-23T23:37:29.254Z,101703.16
2023-01-23T23:40:18.353Z,101713.50
2023-01-23T23:43:08.294Z,101705.19
2023-01-23T23:45:58.388Z,101701.81
2023-01-23T23:48:48.084Z,101698.19
2023-01-23T23:51:36.743Z,101708.31
2023-01-23T23:54:25.224Z,101711.22
2023-01-23T23:57:13.704Z,101705.91
